sensor_id;sensor_type;location;lat;lon;timestamp;P1;durP1;ratioP1;P2;durP2;ratioP2
10134;SDS011;5107;48.850;8.924;2023-08-30T00:01:49;5.80;;;5.13;;
10134;SDS011;5107;48.850;8.924;2023-08-30T00:04:14;5.10;;;4.60;;
10134;SDS011;5107;48.850;8.924;2023-08-30T00:06:39;5.20;;;4.70;;
10134;SDS011;5107;48.850;8.924;2023-08-30T00:09:05;5.10;;;4.60;;
10134;SDS011;5107;48.850;8.924;2023-08-30T00:11:30;5.20;;;4.80;;
10134;SDS011;5107;48.850;8.924;2023-08-30T00:14:03;6.97;;;5.20;;
10134;SDS011;5107;48.850;8.924;2023-08-30T00:16:33;5.40;;;4.90;;
10134;SDS011;5107;48.850;8.924;2023-08-30T00:18:59;5.17;;;4.70;;
10134;SDS011;5107;48.850;8.924;2023-08-30T00:21:25;8.40;;;5.30;;
10134;SDS011;5107;48.850;8.924;2023-08-30T00:23:52;6.47;;;4.97;;
10134;SDS011;5107;48.850;8.924;2023-08-30T00:26:17;4.97;;;4.57;;
10134;SDS011;5107;48.850;8.924;2023-08-30T00:28:43;5.07;;;4.60;;
10134;SDS011;5107;48.850;8.924;2023-08-30T00:31:08;4.77;;;4.40;;
10134;SDS011;5107;48.850;8.924;2023-08-30T00:33:34;5.57;;;5.10;;
10134;SDS011;5107;48.850;8.924;2023-08-30T00:35:59;6.07;;;5.03;;
10134;SDS011;5107;48.850;8.924;2023-08-30T00:38:26;5.33;;;4.93;;
10134;SDS011;5107;48.850;8.924;2023-08-30T00:40:52;5.70;;;5.20;;
10134;SDS011;5107;48.850;8.924;2023-08-30T00:43:18;5.60;;;5.10;;
10134;SDS011;5107;48.850;8.924;2023-08-30T00:45:44;5.30;;;4.80;;
10134;SDS011;5107;48.850;8.924;2023-08-30T00:48:10;5.57;;;5.10;;
10134;SDS011;5107;48.850;8.924;2023-08-30T00:50:36;5.33;;;4.83;;
10134;SDS011;5107;48.850;8.924;2023-08-30T00:53:03;5.20;;;4.70;;
10134;SDS011;5107;48.850;8.924;2023-08-30T00:55:34;5.40;;;4.90;;
10134;SDS011;5107;48.850;8.924;2023-08-30T00:58:00;5.13;;;4.70;;
10134;SDS011;5107;48.850;8.924;2023-08-30T01:00:27;5.40;;;4.90;;
10134;SDS011;5107;48.850;8.924;2023-08-30T01:02:53;5.30;;;4.73;;
10134;SDS011;5107;48.850;8.924;2023-08-30T01:05:20;5.10;;;4.60;;
10134;SDS011;5107;48.850;8.924;2023-08-30T01:07:45;5.00;;;4.50;;
10134;SDS011;5107;48.850;8.924;2023-08-30T01:10:10;4.97;;;4.27;;
10134;SDS011;5107;48.850;8.924;2023-08-30T01:12:58;5.10;;;4.70;;
10134;SDS011;5107;48.850;8.924;2023-08-30T01:15:25;4.37;;;4.00;;
10134;SDS011;5107;48.850;8.924;2023-08-30T01:17:52;4.57;;;4.13;;
10134;SDS011;5107;48.850;8.924;2023-08-30T01:20:19;4.80;;;4.40;;
10134;SDS011;5107;48.850;8.924;2023-08-30T01:28:12;5.03;;;3.83;;
10134;SDS011;5107;48.850;8.924;2023-08-30T01:30:41;4.90;;;4.17;;
10134;SDS011;5107;48.850;8.924;2023-08-30T01:33:08;4.60;;;4.20;;
10134;SDS011;5107;48.850;8.924;2023-08-30T01:35:34;5.13;;;4.00;;
10134;SDS011;5107;48.850;8.924;2023-08-30T01:38:02;5.43;;;4.40;;
10134;SDS011;5107;48.850;8.924;2023-08-30T01:40:32;6.30;;;4.50;;
10134;SDS011;5107;48.850;8.924;2023-08-30T01:43:00;4.50;;;4.20;;
10134;SDS011;5107;48.850;8.924;2023-08-30T01:45:27;5.23;;;4.73;;
10134;SDS011;5107;48.850;8.924;2023-08-30T01:47:54;4.67;;;4.13;;
10134;SDS011;5107;48.850;8.924;2023-08-30T01:50:21;5.33;;;4.77;;
10134;SDS011;5107;48.850;8.924;2023-08-30T01:52:46;5.27;;;4.77;;
10134;SDS011;5107;48.850;8.924;2023-08-30T01:55:13;5.40;;;5.00;;
10134;SDS011;5107;48.850;8.924;2023-08-30T01:57:39;4.93;;;4.53;;
10134;SDS011;5107;48.850;8.924;2023-08-30T02:00:05;5.13;;;4.60;;
10134;SDS011;5107;48.850;8.924;2023-08-30T02:02:32;5.60;;;5.20;;
10134;SDS011;5107;48.850;8.924;2023-08-30T02:04:58;5.53;;;5.13;;
10134;SDS011;5107;48.850;8.924;2023-08-30T02:10:15;5.67;;;5.17;;
10134;SDS011;5107;48.850;8.924;2023-08-30T02:12:47;7.17;;;5.10;;
10134;SDS011;5107;48.850;8.924;2023-08-30T02:15:14;5.33;;;4.93;;
10134;SDS011;5107;48.850;8.924;2023-08-30T02:17:41;5.23;;;4.80;;
10134;SDS011;5107;48.850;8.924;2023-08-30T02:20:09;5.60;;;5.17;;
10134;SDS011;5107;48.850;8.924;2023-08-30T02:22:35;5.97;;;5.13;;
10134;SDS011;5107;48.850;8.924;2023-08-30T02:25:00;5.40;;;4.90;;
10134;SDS011;5107;48.850;8.924;2023-08-30T02:27:29;5.20;;;4.80;;
10134;SDS011;5107;48.850;8.924;2023-08-30T02:29:58;5.47;;;4.97;;
10134;SDS011;5107;48.850;8.924;2023-08-30T02:32:24;5.67;;;4.50;;
10134;SDS011;5107;48.850;8.924;2023-08-30T02:34:49;5.13;;;4.73;;
10134;SDS011;5107;48.850;8.924;2023-08-30T02:37:16;5.50;;;5.00;;
10134;SDS011;5107;48.850;8.924;2023-08-30T02:39:42;5.23;;;4.83;;
10134;SDS011;5107;48.850;8.924;2023-08-30T02:42:07;4.87;;;4.40;;
10134;SDS011;5107;48.850;8.924;2023-08-30T02:44:32;4.80;;;4.40;;
10134;SDS011;5107;48.850;8.924;2023-08-30T02:46:58;5.17;;;4.77;;
10134;SDS011;5107;48.850;8.924;2023-08-30T02:49:23;5.23;;;4.83;;
10134;SDS011;5107;48.850;8.924;2023-08-30T02:51:48;5.30;;;4.90;;
10134;SDS011;5107;48.850;8.924;2023-08-30T02:54:14;5.50;;;5.00;;
10134;SDS011;5107;48.850;8.924;2023-08-30T02:56:42;5.47;;;4.97;;
10134;SDS011;5107;48.850;8.924;2023-08-30T02:59:09;5.73;;;5.10;;
10134;SDS011;5107;48.850;8.924;2023-08-30T03:01:35;5.10;;;4.70;;
10134;SDS011;5107;48.850;8.924;2023-08-30T03:04:00;5.10;;;4.60;;
10134;SDS011;5107;48.850;8.924;2023-08-30T03:06:26;5.13;;;4.73;;
10134;SDS011;5107;48.850;8.924;2023-08-30T03:08:53;5.33;;;4.47;;
10134;SDS011;5107;48.850;8.924;2023-08-30T03:11:18;5.43;;;4.83;;
10134;SDS011;5107;48.850;8.924;2023-08-30T03:13:44;5.60;;;5.20;;
10134;SDS011;5107;48.850;8.924;2023-08-30T03:16:10;5.97;;;5.47;;
10134;SDS011;5107;48.850;8.924;2023-08-30T03:18:39;5.87;;;5.17;;
10134;SDS011;5107;48.850;8.924;2023-08-30T03:21:05;6.73;;;5.27;;
10134;SDS011;5107;48.850;8.924;2023-08-30T03:23:31;5.80;;;5.30;;
10134;SDS011;5107;48.850;8.924;2023-08-30T03:25:57;5.63;;;5.23;;
10134;SDS011;5107;48.850;8.924;2023-08-30T03:28:32;5.57;;;5.13;;
10134;SDS011;5107;48.850;8.924;2023-08-30T03:30:57;5.53;;;5.03;;
10134;SDS011;5107;48.850;8.924;2023-08-30T03:33:22;4.90;;;4.53;;
10134;SDS011;5107;48.850;8.924;2023-08-30T03:35:47;4.83;;;4.47;;
10134;SDS011;5107;48.850;8.924;2023-08-30T03:38:13;4.87;;;4.47;;
10134;SDS011;5107;48.850;8.924;2023-08-30T03:40:38;5.43;;;4.90;;
10134;SDS011;5107;48.850;8.924;2023-08-30T03:43:04;5.07;;;4.57;;
10134;SDS011;5107;48.850;8.924;2023-08-30T03:45:33;5.40;;;4.90;;
10134;SDS011;5107;48.850;8.924;2023-08-30T03:47:59;6.00;;;5.40;;
10134;SDS011;5107;48.850;8.924;2023-08-30T03:50:25;6.20;;;5.60;;
10134;SDS011;5107;48.850;8.924;2023-08-30T03:52:50;5.73;;;5.23;;
10134;SDS011;5107;48.850;8.924;2023-08-30T03:55:15;5.53;;;5.07;;
10134;SDS011;5107;48.850;8.924;2023-08-30T03:57:41;5.47;;;5.00;;
10134;SDS011;5107;48.850;8.924;2023-08-30T04:00:06;5.13;;;4.73;;
10134;SDS011;5107;48.850;8.924;2023-08-30T04:02:32;5.70;;;4.90;;
10134;SDS011;5107;48.850;8.924;2023-08-30T04:04:57;5.37;;;4.87;;
10134;SDS011;5107;48.850;8.924;2023-08-30T04:07:23;5.43;;;5.03;;
10134;SDS011;5107;48.850;8.924;2023-08-30T04:09:48;6.40;;;5.80;;
10134;SDS011;5107;48.850;8.924;2023-08-30T04:12:14;6.37;;;5.80;;
10134;SDS011;5107;48.850;8.924;2023-08-30T04:14:40;6.70;;;6.20;;
10134;SDS011;5107;48.850;8.924;2023-08-30T04:17:05;8.80;;;5.93;;
10134;SDS011;5107;48.850;8.924;2023-08-30T04:19:30;7.27;;;6.57;;
10134;SDS011;5107;48.850;8.924;2023-08-30T04:21:56;6.20;;;5.70;;
10134;SDS011;5107;48.850;8.924;2023-08-30T04:24:21;7.43;;;6.43;;
10134;SDS011;5107;48.850;8.924;2023-08-30T04:26:46;7.77;;;6.53;;
10134;SDS011;5107;48.850;8.924;2023-08-30T04:29:16;6.53;;;5.93;;
10134;SDS011;5107;48.850;8.924;2023-08-30T04:31:42;9.33;;;5.70;;
10134;SDS011;5107;48.850;8.924;2023-08-30T04:34:08;5.97;;;5.47;;
10134;SDS011;5107;48.850;8.924;2023-08-30T04:36:33;6.20;;;5.70;;
10134;SDS011;5107;48.850;8.924;2023-08-30T04:38:59;7.63;;;6.13;;
10134;SDS011;5107;48.850;8.924;2023-08-30T04:41:24;6.60;;;6.00;;
10134;SDS011;5107;48.850;8.924;2023-08-30T04:43:49;7.40;;;6.70;;
10134;SDS011;5107;48.850;8.924;2023-08-30T04:46:15;7.13;;;6.43;;
10134;SDS011;5107;48.850;8.924;2023-08-30T04:48:40;7.10;;;6.50;;
10134;SDS011;5107;48.850;8.924;2023-08-30T04:51:05;7.07;;;6.37;;
10134;SDS011;5107;48.850;8.924;2023-08-30T04:53:31;7.90;;;7.17;;
10134;SDS011;5107;48.850;8.924;2023-08-30T04:55:56;7.87;;;7.10;;
10134;SDS011;5107;48.850;8.924;2023-08-30T04:58:22;8.13;;;7.33;;
10134;SDS011;5107;48.850;8.924;2023-08-30T05:00:47;7.90;;;7.20;;
10134;SDS011;5107;48.850;8.924;2023-08-30T05:03:13;7.13;;;6.40;;
10134;SDS011;5107;48.850;8.924;2023-08-30T05:05:38;7.70;;;6.90;;
10134;SDS011;5107;48.850;8.924;2023-08-30T05:08:03;7.90;;;6.80;;
10134;SDS011;5107;48.850;8.924;2023-08-30T05:10:29;7.03;;;6.53;;
10134;SDS011;5107;48.850;8.924;2023-08-30T05:12:54;7.63;;;6.93;;
10134;SDS011;5107;48.850;8.924;2023-08-30T05:15:20;7.37;;;6.67;;
10134;SDS011;5107;48.850;8.924;2023-08-30T05:17:45;6.73;;;6.13;;
10134;SDS011;5107;48.850;8.924;2023-08-30T05:20:11;7.70;;;6.90;;
10134;SDS011;5107;48.850;8.924;2023-08-30T05:22:37;7.43;;;6.73;;
10134;SDS011;5107;48.850;8.924;2023-08-30T05:25:02;8.17;;;7.37;;
10134;SDS011;5107;48.850;8.924;2023-08-30T05:27:28;14.83;;;13.17;;
10134;SDS011;5107;48.850;8.924;2023-08-30T05:29:53;10.93;;;9.83;;
10134;SDS011;5107;48.850;8.924;2023-08-30T05:32:21;13.43;;;10.93;;
10134;SDS011;5107;48.850;8.924;2023-08-30T05:34:46;27.20;;;21.77;;
10134;SDS011;5107;48.850;8.924;2023-08-30T05:37:12;6.53;;;6.00;;
10134;SDS011;5107;48.850;8.924;2023-08-30T05:39:37;6.43;;;5.80;;
10134;SDS011;5107;48.850;8.924;2023-08-30T05:42:02;7.07;;;5.67;;
10134;SDS011;5107;48.850;8.924;2023-08-30T05:44:28;6.43;;;5.90;;
10134;SDS011;5107;48.850;8.924;2023-08-30T05:46:53;8.50;;;6.37;;
10134;SDS011;5107;48.850;8.924;2023-08-30T05:49:19;6.93;;;6.17;;
10134;SDS011;5107;48.850;8.924;2023-08-30T05:51:44;7.03;;;6.43;;
10134;SDS011;5107;48.850;8.924;2023-08-30T05:54:09;7.73;;;6.13;;
10134;SDS011;5107;48.850;8.924;2023-08-30T05:56:35;6.80;;;6.20;;
10134;SDS011;5107;48.850;8.924;2023-08-30T05:59:00;6.17;;;5.57;;
10134;SDS011;5107;48.850;8.924;2023-08-30T06:01:26;6.77;;;6.27;;
10134;SDS011;5107;48.850;8.924;2023-08-30T06:03:51;6.97;;;6.33;;
10134;SDS011;5107;48.850;8.924;2023-08-30T06:06:16;6.60;;;6.00;;
10134;SDS011;5107;48.850;8.924;2023-08-30T06:08:42;6.63;;;6.03;;
10134;SDS011;5107;48.850;8.924;2023-08-30T06:11:07;7.30;;;5.83;;
10134;SDS011;5107;48.850;8.924;2023-08-30T06:13:33;6.20;;;5.70;;
10134;SDS011;5107;48.850;8.924;2023-08-30T06:15:58;6.53;;;5.93;;
10134;SDS011;5107;48.850;8.924;2023-08-30T06:18:23;6.50;;;5.77;;
10134;SDS011;5107;48.850;8.924;2023-08-30T06:20:49;6.03;;;5.30;;
10134;SDS011;5107;48.850;8.924;2023-08-30T06:23:14;6.13;;;5.63;;
10134;SDS011;5107;48.850;8.924;2023-08-30T06:25:44;5.97;;;5.37;;
10134;SDS011;5107;48.850;8.924;2023-08-30T06:28:09;5.30;;;4.90;;
10134;SDS011;5107;48.850;8.924;2023-08-30T06:30:34;7.20;;;5.63;;
10134;SDS011;5107;48.850;8.924;2023-08-30T06:33:00;5.63;;;5.13;;
10134;SDS011;5107;48.850;8.924;2023-08-30T06:35:25;7.53;;;5.50;;
10134;SDS011;5107;48.850;8.924;2023-08-30T06:37:51;6.77;;;5.83;;
10134;SDS011;5107;48.850;8.924;2023-08-30T06:40:17;5.80;;;5.27;;
10134;SDS011;5107;48.850;8.924;2023-08-30T06:42:42;6.90;;;5.70;;
10134;SDS011;5107;48.850;8.924;2023-08-30T06:45:08;5.93;;;4.97;;
10134;SDS011;5107;48.850;8.924;2023-08-30T06:47:33;5.50;;;5.10;;
10134;SDS011;5107;48.850;8.924;2023-08-30T06:52:25;6.07;;;5.43;;
10134;SDS011;5107;48.850;8.924;2023-08-30T06:54:51;6.00;;;5.40;;
10134;SDS011;5107;48.850;8.924;2023-08-30T06:57:16;5.73;;;5.23;;
10134;SDS011;5107;48.850;8.924;2023-08-30T06:59:42;6.07;;;5.50;;
10134;SDS011;5107;48.850;8.924;2023-08-30T07:02:07;5.77;;;5.27;;
10134;SDS011;5107;48.850;8.924;2023-08-30T07:04:33;6.80;;;5.17;;
10134;SDS011;5107;48.850;8.924;2023-08-30T07:06:58;5.83;;;5.33;;
10134;SDS011;5107;48.850;8.924;2023-08-30T07:09:23;5.53;;;5.03;;
10134;SDS011;5107;48.850;8.924;2023-08-30T07:11:57;5.47;;;5.07;;
10134;SDS011;5107;48.850;8.924;2023-08-30T07:14:23;5.43;;;4.90;;
10134;SDS011;5107;48.850;8.924;2023-08-30T07:16:49;5.93;;;5.20;;
10134;SDS011;5107;48.850;8.924;2023-08-30T07:19:15;5.53;;;4.73;;
10134;SDS011;5107;48.850;8.924;2023-08-30T07:21:41;5.30;;;4.90;;
10134;SDS011;5107;48.850;8.924;2023-08-30T07:24:10;5.57;;;4.97;;
10134;SDS011;5107;48.850;8.924;2023-08-30T07:26:36;5.47;;;5.00;;
10134;SDS011;5107;48.850;8.924;2023-08-30T07:29:02;7.97;;;4.90;;
10134;SDS011;5107;48.850;8.924;2023-08-30T07:31:30;5.57;;;5.10;;
10134;SDS011;5107;48.850;8.924;2023-08-30T07:33:56;5.23;;;4.83;;
10134;SDS011;5107;48.850;8.924;2023-08-30T07:36:23;5.40;;;4.90;;
10134;SDS011;5107;48.850;8.924;2023-08-30T07:38:48;4.93;;;4.53;;
10134;SDS011;5107;48.850;8.924;2023-08-30T07:41:14;5.20;;;4.67;;
10134;SDS011;5107;48.850;8.924;2023-08-30T07:43:39;7.60;;;4.70;;
10134;SDS011;5107;48.850;8.924;2023-08-30T07:46:04;4.47;;;3.97;;
10134;SDS011;5107;48.850;8.924;2023-08-30T07:48:30;4.77;;;4.37;;
10134;SDS011;5107;48.850;8.924;2023-08-30T07:50:55;4.63;;;4.23;;
10134;SDS011;5107;48.850;8.924;2023-08-30T07:53:20;4.63;;;4.30;;
10134;SDS011;5107;48.850;8.924;2023-08-30T07:55:49;6.23;;;4.70;;
10134;SDS011;5107;48.850;8.924;2023-08-30T07:58:15;4.27;;;3.70;;
10134;SDS011;5107;48.850;8.924;2023-08-30T08:00:40;4.27;;;3.97;;
10134;SDS011;5107;48.850;8.924;2023-08-30T08:03:06;4.07;;;3.70;;
10134;SDS011;5107;48.850;8.924;2023-08-30T08:05:31;4.07;;;3.20;;
10134;SDS011;5107;48.850;8.924;2023-08-30T08:07:59;4.07;;;3.67;;
10134;SDS011;5107;48.850;8.924;2023-08-30T08:10:26;3.47;;;3.13;;
10134;SDS011;5107;48.850;8.924;2023-08-30T08:12:51;4.73;;;3.33;;
10134;SDS011;5107;48.850;8.924;2023-08-30T08:15:16;3.87;;;3.50;;
10134;SDS011;5107;48.850;8.924;2023-08-30T08:17:42;3.80;;;3.50;;
10134;SDS011;5107;48.850;8.924;2023-08-30T08:20:07;4.23;;;3.83;;
10134;SDS011;5107;48.850;8.924;2023-08-30T08:22:33;3.73;;;3.43;;
10134;SDS011;5107;48.850;8.924;2023-08-30T08:24:58;5.97;;;3.40;;
10134;SDS011;5107;48.850;8.924;2023-08-30T08:27:27;5.23;;;4.00;;
10134;SDS011;5107;48.850;8.924;2023-08-30T08:29:52;3.60;;;3.30;;
10134;SDS011;5107;48.850;8.924;2023-08-30T08:32:18;4.00;;;3.70;;
10134;SDS011;5107;48.850;8.924;2023-08-30T08:34:43;5.23;;;3.30;;
10134;SDS011;5107;48.850;8.924;2023-08-30T08:37:08;3.40;;;3.20;;
10134;SDS011;5107;48.850;8.924;2023-08-30T08:39:34;3.37;;;3.07;;
10134;SDS011;5107;48.850;8.924;2023-08-30T08:41:59;3.47;;;3.27;;
10134;SDS011;5107;48.850;8.924;2023-08-30T08:44:25;4.30;;;3.60;;
10134;SDS011;5107;48.850;8.924;2023-08-30T08:46:51;3.90;;;3.60;;
10134;SDS011;5107;48.850;8.924;2023-08-30T08:49:17;3.47;;;3.17;;
10134;SDS011;5107;48.850;8.924;2023-08-30T08:51:44;3.30;;;3.03;;
10134;SDS011;5107;48.850;8.924;2023-08-30T08:54:10;3.33;;;3.00;;
10134;SDS011;5107;48.850;8.924;2023-08-30T08:56:37;3.33;;;3.13;;
10134;SDS011;5107;48.850;8.924;2023-08-30T08:59:03;3.40;;;3.10;;
10134;SDS011;5107;48.850;8.924;2023-08-30T09:01:33;3.57;;;2.60;;
10134;SDS011;5107;48.850;8.924;2023-08-30T09:04:03;3.30;;;3.00;;
10134;SDS011;5107;48.850;8.924;2023-08-30T09:06:33;3.57;;;2.83;;
10134;SDS011;5107;48.850;8.924;2023-08-30T09:09:00;3.83;;;2.83;;
10134;SDS011;5107;48.850;8.924;2023-08-30T09:11:26;4.53;;;3.00;;
10134;SDS011;5107;48.850;8.924;2023-08-30T09:13:51;3.87;;;3.33;;
10134;SDS011;5107;48.850;8.924;2023-08-30T09:16:17;3.97;;;3.67;;
10134;SDS011;5107;48.850;8.924;2023-08-30T09:18:42;3.23;;;2.93;;
10134;SDS011;5107;48.850;8.924;2023-08-30T09:21:10;3.27;;;2.97;;
10134;SDS011;5107;48.850;8.924;2023-08-30T09:23:36;2.87;;;2.60;;
10134;SDS011;5107;48.850;8.924;2023-08-30T09:26:02;3.17;;;2.87;;
10134;SDS011;5107;48.850;8.924;2023-08-30T09:28:29;3.40;;;3.10;;
10134;SDS011;5107;48.850;8.924;2023-08-30T09:30:56;5.17;;;3.07;;
10134;SDS011;5107;48.850;8.924;2023-08-30T09:33:22;3.17;;;2.87;;
10134;SDS011;5107;48.850;8.924;2023-08-30T09:35:54;4.35;;;3.30;;
10134;SDS011;5107;48.850;8.924;2023-08-30T09:38:19;3.33;;;3.03;;
10134;SDS011;5107;48.850;8.924;2023-08-30T09:40:45;4.55;;;3.00;;
10134;SDS011;5107;48.850;8.924;2023-08-30T09:43:14;3.50;;;3.20;;
10134;SDS011;5107;48.850;8.924;2023-08-30T09:45:43;3.78;;;3.42;;
10134;SDS011;5107;48.850;8.924;2023-08-30T09:48:09;3.53;;;3.22;;
10134;SDS011;5107;48.850;8.924;2023-08-30T09:50:35;3.60;;;3.30;;
10134;SDS011;5107;48.850;8.924;2023-08-30T09:53:11;3.65;;;3.35;;
10134;SDS011;5107;48.850;8.924;2023-08-30T09:55:39;5.78;;;3.58;;
10134;SDS011;5107;48.850;8.924;2023-08-30T09:58:06;3.60;;;3.30;;
10134;SDS011;5107;48.850;8.924;2023-08-30T10:00:32;3.50;;;3.20;;
10134;SDS011;5107;48.850;8.924;2023-08-30T10:02:58;3.85;;;3.50;;
10134;SDS011;5107;48.850;8.924;2023-08-30T10:05:25;3.33;;;3.13;;
10134;SDS011;5107;48.850;8.924;2023-08-30T10:07:51;4.30;;;4.00;;
10134;SDS011;5107;48.850;8.924;2023-08-30T10:10:17;3.60;;;3.30;;
10134;SDS011;5107;48.850;8.924;2023-08-30T10:12:44;3.50;;;3.20;;
10134;SDS011;5107;48.850;8.924;2023-08-30T10:15:11;4.00;;;3.00;;
10134;SDS011;5107;48.850;8.924;2023-08-30T10:17:36;3.72;;;3.10;;
10134;SDS011;5107;48.850;8.924;2023-08-30T10:20:06;3.33;;;3.10;;
10134;SDS011;5107;48.850;8.924;2023-08-30T10:22:33;3.78;;;3.45;;
10134;SDS011;5107;48.850;8.924;2023-08-30T10:25:02;3.33;;;3.10;;
10134;SDS011;5107;48.850;8.924;2023-08-30T10:27:31;3.45;;;3.25;;
10134;SDS011;5107;48.850;8.924;2023-08-30T10:29:58;3.40;;;3.10;;
10134;SDS011;5107;48.850;8.924;2023-08-30T10:32:25;3.67;;;3.38;;
10134;SDS011;5107;48.850;8.924;2023-08-30T10:34:51;3.80;;;3.50;;
10134;SDS011;5107;48.850;8.924;2023-08-30T10:37:21;4.13;;;3.80;;
10134;SDS011;5107;48.850;8.924;2023-08-30T10:39:49;4.07;;;3.78;;
10134;SDS011;5107;48.850;8.924;2023-08-30T10:42:15;4.30;;;3.97;;
10134;SDS011;5107;48.850;8.924;2023-08-30T10:47:19;5.30;;;4.20;;
10134;SDS011;5107;48.850;8.924;2023-08-30T10:49:48;4.05;;;3.75;;
10134;SDS011;5107;48.850;8.924;2023-08-30T10:52:14;4.30;;;3.90;;
10134;SDS011;5107;48.850;8.924;2023-08-30T10:54:40;4.43;;;4.03;;
10134;SDS011;5107;48.850;8.924;2023-08-30T10:57:05;3.90;;;3.60;;
10134;SDS011;5107;48.850;8.924;2023-08-30T10:59:37;4.20;;;3.90;;
10134;SDS011;5107;48.850;8.924;2023-08-30T11:02:02;4.27;;;3.87;;
10134;SDS011;5107;48.850;8.924;2023-08-30T11:04:28;4.47;;;4.07;;
10134;SDS011;5107;48.850;8.924;2023-08-30T11:06:54;4.60;;;4.20;;
10134;SDS011;5107;48.850;8.924;2023-08-30T11:09:20;4.33;;;3.77;;
10134;SDS011;5107;48.850;8.924;2023-08-30T11:11:47;4.13;;;3.83;;
10134;SDS011;5107;48.850;8.924;2023-08-30T11:14:14;4.37;;;4.07;;
10134;SDS011;5107;48.850;8.924;2023-08-30T11:16:40;4.10;;;3.77;;
10134;SDS011;5107;48.850;8.924;2023-08-30T11:19:07;4.63;;;4.23;;
10134;SDS011;5107;48.850;8.924;2023-08-30T11:21:35;5.80;;;4.50;;
10134;SDS011;5107;48.850;8.924;2023-08-30T11:24:05;4.63;;;4.23;;
10134;SDS011;5107;48.850;8.924;2023-08-30T11:26:31;4.60;;;4.20;;
10134;SDS011;5107;48.850;8.924;2023-08-30T11:28:57;4.23;;;3.83;;
10134;SDS011;5107;48.850;8.924;2023-08-30T11:31:23;4.27;;;3.87;;
10134;SDS011;5107;48.850;8.924;2023-08-30T11:36:20;4.80;;;4.03;;
10134;SDS011;5107;48.850;8.924;2023-08-30T11:38:46;5.40;;;4.03;;
10134;SDS011;5107;48.850;8.924;2023-08-30T11:41:12;4.40;;;4.00;;
10134;SDS011;5107;48.850;8.924;2023-08-30T11:43:37;4.72;;;4.32;;
10134;SDS011;5107;48.850;8.924;2023-08-30T11:46:03;4.60;;;4.20;;
10134;SDS011;5107;48.850;8.924;2023-08-30T11:48:29;4.47;;;3.95;;
10134;SDS011;5107;48.850;8.924;2023-08-30T11:50:54;4.33;;;4.03;;
10134;SDS011;5107;48.850;8.924;2023-08-30T11:53:20;4.40;;;3.90;;
10134;SDS011;5107;48.850;8.924;2023-08-30T11:55:46;4.35;;;3.95;;
10134;SDS011;5107;48.850;8.924;2023-08-30T11:58:11;4.63;;;4.00;;
10134;SDS011;5107;48.850;8.924;2023-08-30T12:00:36;4.53;;;4.20;;
10134;SDS011;5107;48.850;8.924;2023-08-30T12:03:04;4.70;;;4.30;;
10134;SDS011;5107;48.850;8.924;2023-08-30T12:05:30;4.75;;;4.25;;
10134;SDS011;5107;48.850;8.924;2023-08-30T12:07:59;4.30;;;3.90;;
10134;SDS011;5107;48.850;8.924;2023-08-30T12:10:25;4.10;;;3.80;;
10134;SDS011;5107;48.850;8.924;2023-08-30T12:12:53;4.60;;;4.20;;
10134;SDS011;5107;48.850;8.924;2023-08-30T12:15:18;4.30;;;4.00;;
10134;SDS011;5107;48.850;8.924;2023-08-30T12:17:44;5.07;;;4.67;;
10134;SDS011;5107;48.850;8.924;2023-08-30T12:20:16;5.37;;;4.77;;
10134;SDS011;5107;48.850;8.924;2023-08-30T12:22:43;5.20;;;4.70;;
10134;SDS011;5107;48.850;8.924;2023-08-30T12:25:21;5.07;;;4.57;;
10134;SDS011;5107;48.850;8.924;2023-08-30T12:27:51;4.53;;;4.17;;
10134;SDS011;5107;48.850;8.924;2023-08-30T12:30:18;4.30;;;3.90;;
10134;SDS011;5107;48.850;8.924;2023-08-30T12:32:44;4.45;;;4.05;;
10134;SDS011;5107;48.850;8.924;2023-08-30T12:35:10;4.40;;;4.00;;
10134;SDS011;5107;48.850;8.924;2023-08-30T12:37:36;4.35;;;4.03;;
10134;SDS011;5107;48.850;8.924;2023-08-30T12:40:01;4.43;;;4.07;;
10134;SDS011;5107;48.850;8.924;2023-08-30T12:42:26;3.90;;;3.60;;
10134;SDS011;5107;48.850;8.924;2023-08-30T12:44:52;3.75;;;3.42;;
10134;SDS011;5107;48.850;8.924;2023-08-30T12:47:17;4.20;;;3.90;;
10134;SDS011;5107;48.850;8.924;2023-08-30T12:49:42;4.00;;;3.53;;
10134;SDS011;5107;48.850;8.924;2023-08-30T12:52:08;3.83;;;3.53;;
10134;SDS011;5107;48.850;8.924;2023-08-30T12:54:33;3.80;;;3.50;;
10134;SDS011;5107;48.850;8.924;2023-08-30T12:56:58;5.13;;;3.67;;
10134;SDS011;5107;48.850;8.924;2023-08-30T12:59:24;3.88;;;3.58;;
10134;SDS011;5107;48.850;8.924;2023-08-30T13:01:49;3.33;;;3.03;;
10134;SDS011;5107;48.850;8.924;2023-08-30T13:04:15;3.58;;;3.28;;
10134;SDS011;5107;48.850;8.924;2023-08-30T13:06:40;3.40;;;3.10;;
10134;SDS011;5107;48.850;8.924;2023-08-30T13:09:05;3.42;;;3.08;;
10134;SDS011;5107;48.850;8.924;2023-08-30T13:11:31;3.13;;;2.63;;
10134;SDS011;5107;48.850;8.924;2023-08-30T13:13:57;3.05;;;2.75;;
10134;SDS011;5107;48.850;8.924;2023-08-30T13:16:23;3.30;;;2.72;;
10134;SDS011;5107;48.850;8.924;2023-08-30T13:18:49;3.25;;;2.55;;
10134;SDS011;5107;48.850;8.924;2023-08-30T13:21:14;4.18;;;2.60;;
10134;SDS011;5107;48.850;8.924;2023-08-30T13:23:40;2.88;;;2.58;;
10134;SDS011;5107;48.850;8.924;2023-08-30T13:26:05;3.20;;;2.30;;
10134;SDS011;5107;48.850;8.924;2023-08-30T13:28:30;2.70;;;2.50;;
10134;SDS011;5107;48.850;8.924;2023-08-30T13:30:56;3.15;;;2.50;;
10134;SDS011;5107;48.850;8.924;2023-08-30T13:33:21;3.22;;;2.70;;
10134;SDS011;5107;48.850;8.924;2023-08-30T13:35:50;3.35;;;2.95;;
10134;SDS011;5107;48.850;8.924;2023-08-30T13:38:16;2.90;;;2.70;;
10134;SDS011;5107;48.850;8.924;2023-08-30T13:40:42;3.28;;;2.63;;
10134;SDS011;5107;48.850;8.924;2023-08-30T13:43:08;3.20;;;2.60;;
10134;SDS011;5107;48.850;8.924;2023-08-30T13:45:33;3.13;;;2.60;;
10134;SDS011;5107;48.850;8.924;2023-08-30T13:47:59;2.85;;;2.65;;
10134;SDS011;5107;48.850;8.924;2023-08-30T13:50:25;3.10;;;2.90;;
10134;SDS011;5107;48.850;8.924;2023-08-30T13:52:55;3.25;;;3.05;;
10134;SDS011;5107;48.850;8.924;2023-08-30T13:55:23;3.72;;;3.03;;
10134;SDS011;5107;48.850;8.924;2023-08-30T13:57:49;4.20;;;3.05;;
10134;SDS011;5107;48.850;8.924;2023-08-30T14:00:15;4.65;;;3.03;;
10134;SDS011;5107;48.850;8.924;2023-08-30T14:02:40;3.25;;;3.05;;
10134;SDS011;5107;48.850;8.924;2023-08-30T14:05:06;3.20;;;3.00;;
10134;SDS011;5107;48.850;8.924;2023-08-30T14:07:32;3.53;;;3.22;;
10134;SDS011;5107;48.850;8.924;2023-08-30T14:09:57;3.88;;;3.30;;
10134;SDS011;5107;48.850;8.924;2023-08-30T14:12:23;3.45;;;3.15;;
10134;SDS011;5107;48.850;8.924;2023-08-30T14:14:48;3.63;;;3.33;;
10134;SDS011;5107;48.850;8.924;2023-08-30T14:17:14;3.60;;;3.30;;
10134;SDS011;5107;48.850;8.924;2023-08-30T14:19:39;3.92;;;3.58;;
10134;SDS011;5107;48.850;8.924;2023-08-30T14:22:05;3.53;;;3.17;;
10134;SDS011;5107;48.850;8.924;2023-08-30T14:24:31;4.00;;;3.70;;
10134;SDS011;5107;48.850;8.924;2023-08-30T14:26:57;4.45;;;3.42;;
10134;SDS011;5107;48.850;8.924;2023-08-30T14:29:23;4.72;;;3.55;;
10134;SDS011;5107;48.850;8.924;2023-08-30T14:31:48;3.78;;;3.47;;
10134;SDS011;5107;48.850;8.924;2023-08-30T14:34:14;4.10;;;3.38;;
10134;SDS011;5107;48.850;8.924;2023-08-30T14:36:39;3.67;;;3.20;;
10134;SDS011;5107;48.850;8.924;2023-08-30T14:39:08;3.50;;;3.20;;
10134;SDS011;5107;48.850;8.924;2023-08-30T14:41:34;3.50;;;3.20;;
10134;SDS011;5107;48.850;8.924;2023-08-30T14:44:02;3.53;;;3.17;;
10134;SDS011;5107;48.850;8.924;2023-08-30T14:46:28;3.43;;;3.13;;
10134;SDS011;5107;48.850;8.924;2023-08-30T14:48:54;3.77;;;3.20;;
10134;SDS011;5107;48.850;8.924;2023-08-30T14:51:19;4.40;;;3.20;;
10134;SDS011;5107;48.850;8.924;2023-08-30T14:53:44;3.33;;;3.00;;
10134;SDS011;5107;48.850;8.924;2023-08-30T14:56:10;6.03;;;3.30;;
10134;SDS011;5107;48.850;8.924;2023-08-30T14:58:36;4.03;;;3.37;;
10134;SDS011;5107;48.850;8.924;2023-08-30T15:01:03;3.70;;;3.40;;
10134;SDS011;5107;48.850;8.924;2023-08-30T15:03:29;3.13;;;2.93;;
10134;SDS011;5107;48.850;8.924;2023-08-30T15:05:55;3.57;;;3.30;;
10134;SDS011;5107;48.850;8.924;2023-08-30T15:08:21;3.60;;;3.27;;
10134;SDS011;5107;48.850;8.924;2023-08-30T15:10:47;3.27;;;2.97;;